Cottage Grove, Tennessee
Current Conditions -  °F | °C
As of 4:55 PM on Thursday 27 Nov 2014 (Local Time) from KPHT Reporting Station
Few Clouds Few Clouds  
Wind Chill: -2°   Ceiling: Unl
Heat Index: -2°   Visibility: 10mi
Dew Point: -6°   Wind: 0mph
Humidity: 74%   Direction: NA
Pressure: 30.47"   Gusts: NA
Location:  36.38°N, 88.48°W
Report Text: KPHT 272255Z AUTO 00000KT 10SM FEW032 M02/M06 A3047 RMK
Loading
Personal Weather Stations






























Interactive Weather Map New forecast layout! Learn more

10-Day Weather Forecast

Advertisements
Track Severe Weather on mobile